Accueil
METAR-TAF:

METAR-TAF

Aéroports :

Aéroport de La Réunion Roland-Garros

Saint-Denis, Réunion

latitude: 20-53S, longitude: 055-31E, altitude: 21 m

Observation

Le bulletin a été fait il y a 16 minutes, à 13:30 UTC
Vent calme
Température 27°C
Humidité 79%
Pression 1011 hPa
Visibilité 10 km ou plus

METAR: FMEE 061330Z AUTO 00000KT 9999 SCT021/// SCT250/// ///TCU 27/23 Q1011 BECMG SCT030 BKN100

Heure: 17:46 (13:46 UTC)

Prévision

Le bulletin a été fait il y a 2 heures et 46 minutes, à 11:00 UTC
Prévision valable du 06 à 12 UTC au 07 à 18 UTC
Vent 5 kt de est
Visibilité 10 km ou plus
Nuages épars à une hauteur de 3000 ft
Nuages fragmentés à une hauteur de 10000 ft
Evoluant progressivement
du 07 à 11 UTC au 07 à 13 UTC
Vent 15 kt de est

TAF: FMEE 061100Z 0612/0718 10005KT 9999 SCT030 BKN100 BECMG 0711/0713 10015KT

Observations et prévisions météorologiques de plus de 4000 aéroports (messages METAR et TAF).

Les stations disponibles sont représentées par des disques jaunes et rouges sur la carte.

Passer la souris dessus pour voir le nom de la station.

Cliquer dessus pour voir les observations et prévisions météorologiques.

Pour changer de carte: cliquez sur les boutons verts avec une croix noire pour zoomer, sur le bouton vert avec un tiret pour effectuer un zoom arrière, ou sur les flèches vertes pour les cartes adjacentes.


METAR-TAF: